sensor_id;sensor_type;location;lat;lon;timestamp;temperature;humidity
15937;DHT22;9163;48.818;8.976;2023-04-01T00:01:13;7.20;99.90
15937;DHT22;9163;48.818;8.976;2023-04-01T00:03:42;7.30;99.90
15937;DHT22;9163;48.818;8.976;2023-04-01T00:06:12;7.30;99.90
15937;DHT22;9163;48.818;8.976;2023-04-01T00:08:39;7.30;99.90
15937;DHT22;9163;48.818;8.976;2023-04-01T00:11:07;7.30;99.90
15937;DHT22;9163;48.818;8.976;2023-04-01T00:13:35;7.30;99.90
15937;DHT22;9163;48.818;8.976;2023-04-01T00:16:03;7.40;99.90
15937;DHT22;9163;48.818;8.976;2023-04-01T00:18:30;7.50;99.90
15937;DHT22;9163;48.818;8.976;2023-04-01T00:20:57;7.50;99.90
15937;DHT22;9163;48.818;8.976;2023-04-01T00:23:25;7.50;99.90
15937;DHT22;9163;48.818;8.976;2023-04-01T00:25:52;7.50;99.90
15937;DHT22;9163;48.818;8.976;2023-04-01T00:28:20;7.50;99.90
15937;DHT22;9163;48.818;8.976;2023-04-01T00:30:48;7.50;99.90
15937;DHT22;9163;48.818;8.976;2023-04-01T00:33:16;7.50;99.90
15937;DHT22;9163;48.818;8.976;2023-04-01T00:35:43;7.50;99.90
15937;DHT22;9163;48.818;8.976;2023-04-01T00:38:11;7.50;99.90
15937;DHT22;9163;48.818;8.976;2023-04-01T00:40:41;7.50;99.90
15937;DHT22;9163;48.818;8.976;2023-04-01T00:43:13;7.50;99.90
15937;DHT22;9163;48.818;8.976;2023-04-01T00:45:42;7.50;99.90
15937;DHT22;9163;48.818;8.976;2023-04-01T00:48:14;7.50;99.90
15937;DHT22;9163;48.818;8.976;2023-04-01T00:50:46;7.50;99.90
15937;DHT22;9163;48.818;8.976;2023-04-01T00:53:14;7.50;99.90
15937;DHT22;9163;48.818;8.976;2023-04-01T00:55:48;7.50;99.90
15937;DHT22;9163;48.818;8.976;2023-04-01T00:58:18;7.50;99.90
15937;DHT22;9163;48.818;8.976;2023-04-01T01:00:49;7.50;99.90
15937;DHT22;9163;48.818;8.976;2023-04-01T01:03:19;7.40;99.90
15937;DHT22;9163;48.818;8.976;2023-04-01T01:05:57;7.40;99.90
15937;DHT22;9163;48.818;8.976;2023-04-01T01:08:36;7.40;99.90
15937;DHT22;9163;48.818;8.976;2023-04-01T01:11:08;7.40;99.90
15937;DHT22;9163;48.818;8.976;2023-04-01T01:13:42;7.30;99.90
15937;DHT22;9163;48.818;8.976;2023-04-01T01:16:17;7.30;99.90
15937;DHT22;9163;48.818;8.976;2023-04-01T01:18:50;7.30;99.90
15937;DHT22;9163;48.818;8.976;2023-04-01T01:21:32;7.30;99.90
15937;DHT22;9163;48.818;8.976;2023-04-01T01:24:36;7.30;99.90
15937;DHT22;9163;48.818;8.976;2023-04-01T01:27:07;7.20;99.90
15937;DHT22;9163;48.818;8.976;2023-04-01T01:30:04;7.20;99.90
15937;DHT22;9163;48.818;8.976;2023-04-01T01:32:55;7.30;99.90
15937;DHT22;9163;48.818;8.976;2023-04-01T01:35:31;7.30;99.90
15937;DHT22;9163;48.818;8.976;2023-04-01T01:38:02;7.30;99.90
15937;DHT22;9163;48.818;8.976;2023-04-01T01:40:32;7.20;99.90
15937;DHT22;9163;48.818;8.976;2023-04-01T01:43:05;7.30;99.90
15937;DHT22;9163;48.818;8.976;2023-04-01T01:45:35;7.30;99.90
15937;DHT22;9163;48.818;8.976;2023-04-01T01:48:04;7.30;99.90
15937;DHT22;9163;48.818;8.976;2023-04-01T01:50:33;7.30;99.90
15937;DHT22;9163;48.818;8.976;2023-04-01T01:53:03;7.30;99.90
15937;DHT22;9163;48.818;8.976;2023-04-01T01:55:32;7.30;99.90
15937;DHT22;9163;48.818;8.976;2023-04-01T01:58:04;7.20;99.90
15937;DHT22;9163;48.818;8.976;2023-04-01T02:00:33;7.20;99.90
15937;DHT22;9163;48.818;8.976;2023-04-01T02:03:01;7.20;99.90
15937;DHT22;9163;48.818;8.976;2023-04-01T02:05:30;7.20;99.90
15937;DHT22;9163;48.818;8.976;2023-04-01T02:08:03;7.10;99.90
15937;DHT22;9163;48.818;8.976;2023-04-01T02:10:35;7.10;99.90
15937;DHT22;9163;48.818;8.976;2023-04-01T02:13:09;7.10;99.90
15937;DHT22;9163;48.818;8.976;2023-04-01T02:15:44;7.10;99.90
15937;DHT22;9163;48.818;8.976;2023-04-01T02:18:13;7.10;99.90
15937;DHT22;9163;48.818;8.976;2023-04-01T02:20:42;7.10;99.90
15937;DHT22;9163;48.818;8.976;2023-04-01T02:23:11;7.10;99.90
15937;DHT22;9163;48.818;8.976;2023-04-01T02:25:39;7.00;99.90
15937;DHT22;9163;48.818;8.976;2023-04-01T02:28:09;7.10;99.90
15937;DHT22;9163;48.818;8.976;2023-04-01T02:30:39;7.10;99.90
15937;DHT22;9163;48.818;8.976;2023-04-01T02:33:08;7.10;99.90
15937;DHT22;9163;48.818;8.976;2023-04-01T02:35:36;7.20;99.90
15937;DHT22;9163;48.818;8.976;2023-04-01T02:38:04;7.20;99.90
15937;DHT22;9163;48.818;8.976;2023-04-01T02:40:47;7.20;99.90
15937;DHT22;9163;48.818;8.976;2023-04-01T02:43:14;7.10;99.90
15937;DHT22;9163;48.818;8.976;2023-04-01T02:45:42;7.20;99.90
15937;DHT22;9163;48.818;8.976;2023-04-01T02:48:09;7.20;99.90
15937;DHT22;9163;48.818;8.976;2023-04-01T02:50:36;7.20;99.90
15937;DHT22;9163;48.818;8.976;2023-04-01T02:53:04;7.30;99.90
15937;DHT22;9163;48.818;8.976;2023-04-01T02:55:32;7.20;99.90
15937;DHT22;9163;48.818;8.976;2023-04-01T02:58:00;7.20;99.90
15937;DHT22;9163;48.818;8.976;2023-04-01T03:00:28;7.30;99.90
15937;DHT22;9163;48.818;8.976;2023-04-01T03:02:55;7.30;99.90
15937;DHT22;9163;48.818;8.976;2023-04-01T03:05:22;7.30;99.90
15937;DHT22;9163;48.818;8.976;2023-04-01T03:07:49;7.30;99.90
15937;DHT22;9163;48.818;8.976;2023-04-01T03:10:17;7.40;99.90
15937;DHT22;9163;48.818;8.976;2023-04-01T03:12:44;7.40;99.90
15937;DHT22;9163;48.818;8.976;2023-04-01T03:15:13;7.30;99.90
15937;DHT22;9163;48.818;8.976;2023-04-01T03:17:41;7.20;99.90
15937;DHT22;9163;48.818;8.976;2023-04-01T03:20:10;7.20;99.90
15937;DHT22;9163;48.818;8.976;2023-04-01T03:22:38;7.20;99.90
15937;DHT22;9163;48.818;8.976;2023-04-01T03:25:06;7.10;99.90
15937;DHT22;9163;48.818;8.976;2023-04-01T03:27:34;7.10;99.90
15937;DHT22;9163;48.818;8.976;2023-04-01T03:30:02;7.10;99.90
15937;DHT22;9163;48.818;8.976;2023-04-01T03:32:31;7.00;99.90
15937;DHT22;9163;48.818;8.976;2023-04-01T03:34:58;7.00;99.90
15937;DHT22;9163;48.818;8.976;2023-04-01T03:37:25;6.90;99.90
15937;DHT22;9163;48.818;8.976;2023-04-01T03:39:52;6.90;99.90
15937;DHT22;9163;48.818;8.976;2023-04-01T03:42:19;6.90;99.90
15937;DHT22;9163;48.818;8.976;2023-04-01T03:44:47;6.90;99.90
15937;DHT22;9163;48.818;8.976;2023-04-01T03:47:14;6.90;99.90
15937;DHT22;9163;48.818;8.976;2023-04-01T03:49:42;6.90;99.90
15937;DHT22;9163;48.818;8.976;2023-04-01T03:52:11;6.90;99.90
15937;DHT22;9163;48.818;8.976;2023-04-01T03:54:38;6.80;99.90
15937;DHT22;9163;48.818;8.976;2023-04-01T03:57:05;6.80;99.90
15937;DHT22;9163;48.818;8.976;2023-04-01T03:59:33;6.80;99.90
15937;DHT22;9163;48.818;8.976;2023-04-01T04:02:00;6.90;99.90
15937;DHT22;9163;48.818;8.976;2023-04-01T04:04:27;6.90;99.90
15937;DHT22;9163;48.818;8.976;2023-04-01T04:06:56;6.90;99.90
15937;DHT22;9163;48.818;8.976;2023-04-01T04:09:23;6.90;99.90
15937;DHT22;9163;48.818;8.976;2023-04-01T04:11:51;6.90;99.90
15937;DHT22;9163;48.818;8.976;2023-04-01T04:14:18;6.90;99.90
15937;DHT22;9163;48.818;8.976;2023-04-01T04:16:45;7.00;99.90
15937;DHT22;9163;48.818;8.976;2023-04-01T04:19:13;7.00;99.90
15937;DHT22;9163;48.818;8.976;2023-04-01T04:21:40;7.00;99.90
15937;DHT22;9163;48.818;8.976;2023-04-01T04:24:09;6.90;99.90
15937;DHT22;9163;48.818;8.976;2023-04-01T04:26:36;6.80;99.90
15937;DHT22;9163;48.818;8.976;2023-04-01T04:29:04;6.90;99.90
15937;DHT22;9163;48.818;8.976;2023-04-01T04:31:31;6.80;99.90
15937;DHT22;9163;48.818;8.976;2023-04-01T04:33:59;6.80;99.90
15937;DHT22;9163;48.818;8.976;2023-04-01T04:36:27;6.80;99.90
15937;DHT22;9163;48.818;8.976;2023-04-01T04:38:54;6.80;99.90
15937;DHT22;9163;48.818;8.976;2023-04-01T04:41:22;6.90;99.90
15937;DHT22;9163;48.818;8.976;2023-04-01T04:43:51;6.80;99.90
15937;DHT22;9163;48.818;8.976;2023-04-01T04:46:19;6.80;99.90
15937;DHT22;9163;48.818;8.976;2023-04-01T04:48:46;6.90;99.90
15937;DHT22;9163;48.818;8.976;2023-04-01T04:51:14;6.80;99.90
15937;DHT22;9163;48.818;8.976;2023-04-01T04:53:42;6.80;99.90
15937;DHT22;9163;48.818;8.976;2023-04-01T04:56:10;6.80;99.90
15937;DHT22;9163;48.818;8.976;2023-04-01T04:58:39;6.80;99.90
15937;DHT22;9163;48.818;8.976;2023-04-01T05:01:08;6.70;99.90
15937;DHT22;9163;48.818;8.976;2023-04-01T05:03:35;6.80;99.90
15937;DHT22;9163;48.818;8.976;2023-04-01T05:06:03;6.80;99.90
15937;DHT22;9163;48.818;8.976;2023-04-01T05:08:31;6.80;99.90
15937;DHT22;9163;48.818;8.976;2023-04-01T05:10:58;6.80;99.90
15937;DHT22;9163;48.818;8.976;2023-04-01T05:13:26;6.80;99.90
15937;DHT22;9163;48.818;8.976;2023-04-01T05:15:54;6.90;99.90
15937;DHT22;9163;48.818;8.976;2023-04-01T05:18:22;6.90;99.90
15937;DHT22;9163;48.818;8.976;2023-04-01T05:20:50;6.80;99.90
15937;DHT22;9163;48.818;8.976;2023-04-01T05:23:18;6.90;99.90
15937;DHT22;9163;48.818;8.976;2023-04-01T05:25:46;7.00;99.90
15937;DHT22;9163;48.818;8.976;2023-04-01T05:28:14;7.00;99.90
15937;DHT22;9163;48.818;8.976;2023-04-01T05:30:41;7.10;99.90
15937;DHT22;9163;48.818;8.976;2023-04-01T05:33:11;7.10;99.90
15937;DHT22;9163;48.818;8.976;2023-04-01T05:35:39;7.10;99.90
15937;DHT22;9163;48.818;8.976;2023-04-01T05:38:06;7.10;99.90
15937;DHT22;9163;48.818;8.976;2023-04-01T05:40:34;7.10;99.90
15937;DHT22;9163;48.818;8.976;2023-04-01T05:43:01;7.20;99.90
15937;DHT22;9163;48.818;8.976;2023-04-01T05:45:28;7.20;99.90
15937;DHT22;9163;48.818;8.976;2023-04-01T05:47:55;7.30;99.90
15937;DHT22;9163;48.818;8.976;2023-04-01T05:50:24;7.30;99.90
15937;DHT22;9163;48.818;8.976;2023-04-01T05:52:51;7.40;99.90
15937;DHT22;9163;48.818;8.976;2023-04-01T05:55:18;7.40;99.90
15937;DHT22;9163;48.818;8.976;2023-04-01T05:57:46;7.40;99.90
15937;DHT22;9163;48.818;8.976;2023-04-01T06:00:15;7.50;99.90
15937;DHT22;9163;48.818;8.976;2023-04-01T06:02:42;7.50;99.90
15937;DHT22;9163;48.818;8.976;2023-04-01T06:05:14;7.60;99.90
15937;DHT22;9163;48.818;8.976;2023-04-01T06:07:45;7.60;99.90
15937;DHT22;9163;48.818;8.976;2023-04-01T06:10:15;7.60;99.90
15937;DHT22;9163;48.818;8.976;2023-04-01T06:12:53;7.60;99.90
15937;DHT22;9163;48.818;8.976;2023-04-01T06:15:28;7.60;99.90
15937;DHT22;9163;48.818;8.976;2023-04-01T06:18:09;7.60;99.90
15937;DHT22;9163;48.818;8.976;2023-04-01T06:20:45;7.60;99.90
15937;DHT22;9163;48.818;8.976;2023-04-01T06:23:36;7.60;99.90
15937;DHT22;9163;48.818;8.976;2023-04-01T06:26:14;7.70;99.90
15937;DHT22;9163;48.818;8.976;2023-04-01T06:29:06;7.70;99.90
15937;DHT22;9163;48.818;8.976;2023-04-01T06:32:02;7.60;99.90
15937;DHT22;9163;48.818;8.976;2023-04-01T06:34:43;7.60;99.90
15937;DHT22;9163;48.818;8.976;2023-04-01T06:37:28;7.50;99.90
15937;DHT22;9163;48.818;8.976;2023-04-01T06:40:22;7.50;99.90
15937;DHT22;9163;48.818;8.976;2023-04-01T06:43:01;7.50;99.90
15937;DHT22;9163;48.818;8.976;2023-04-01T06:45:38;7.50;99.90
15937;DHT22;9163;48.818;8.976;2023-04-01T06:48:19;7.50;99.90
15937;DHT22;9163;48.818;8.976;2023-04-01T06:50:53;7.50;99.90
15937;DHT22;9163;48.818;8.976;2023-04-01T06:53:29;7.50;99.90
15937;DHT22;9163;48.818;8.976;2023-04-01T06:56:03;7.40;99.90
15937;DHT22;9163;48.818;8.976;2023-04-01T06:58:37;7.50;99.90
15937;DHT22;9163;48.818;8.976;2023-04-01T07:01:08;7.40;99.90
15937;DHT22;9163;48.818;8.976;2023-04-01T07:03:41;7.40;99.90
15937;DHT22;9163;48.818;8.976;2023-04-01T07:06:14;7.40;99.90
15937;DHT22;9163;48.818;8.976;2023-04-01T07:08:44;7.40;99.90
15937;DHT22;9163;48.818;8.976;2023-04-01T07:11:21;7.40;99.90
15937;DHT22;9163;48.818;8.976;2023-04-01T07:13:51;7.40;99.90
15937;DHT22;9163;48.818;8.976;2023-04-01T07:16:24;7.30;99.90
15937;DHT22;9163;48.818;8.976;2023-04-01T07:18:57;7.30;99.90
15937;DHT22;9163;48.818;8.976;2023-04-01T07:21:28;7.30;99.90
15937;DHT22;9163;48.818;8.976;2023-04-01T07:24:01;7.40;99.90
15937;DHT22;9163;48.818;8.976;2023-04-01T07:26:31;7.30;99.90
15937;DHT22;9163;48.818;8.976;2023-04-01T07:28:59;7.30;99.90
15937;DHT22;9163;48.818;8.976;2023-04-01T07:31:38;7.30;99.90
15937;DHT22;9163;48.818;8.976;2023-04-01T07:34:12;7.30;99.90
15937;DHT22;9163;48.818;8.976;2023-04-01T07:36:47;7.30;99.90
15937;DHT22;9163;48.818;8.976;2023-04-01T07:39:29;7.40;99.90
15937;DHT22;9163;48.818;8.976;2023-04-01T07:42:04;7.40;99.90
15937;DHT22;9163;48.818;8.976;2023-04-01T07:44:40;7.50;99.90
15937;DHT22;9163;48.818;8.976;2023-04-01T07:47:22;7.50;99.90
15937;DHT22;9163;48.818;8.976;2023-04-01T07:50:01;7.50;99.90
15937;DHT22;9163;48.818;8.976;2023-04-01T07:52:33;7.70;99.90
15937;DHT22;9163;48.818;8.976;2023-04-01T07:55:06;7.70;99.90
15937;DHT22;9163;48.818;8.976;2023-04-01T07:57:43;7.70;99.90
15937;DHT22;9163;48.818;8.976;2023-04-01T08:00:19;7.70;99.90
15937;DHT22;9163;48.818;8.976;2023-04-01T08:03:17;7.70;99.90
15937;DHT22;9163;48.818;8.976;2023-04-01T08:05:54;7.70;99.90
15937;DHT22;9163;48.818;8.976;2023-04-01T08:08:29;7.70;99.90
15937;DHT22;9163;48.818;8.976;2023-04-01T08:11:07;7.80;99.90
15937;DHT22;9163;48.818;8.976;2023-04-01T08:13:42;7.70;99.90
15937;DHT22;9163;48.818;8.976;2023-04-01T08:16:17;7.70;99.90
15937;DHT22;9163;48.818;8.976;2023-04-01T08:18:54;7.80;99.90
15937;DHT22;9163;48.818;8.976;2023-04-01T08:21:28;7.70;99.90
15937;DHT22;9163;48.818;8.976;2023-04-01T08:24:07;7.70;99.90
15937;DHT22;9163;48.818;8.976;2023-04-01T08:26:40;7.70;99.90
15937;DHT22;9163;48.818;8.976;2023-04-01T08:29:15;7.70;99.90
15937;DHT22;9163;48.818;8.976;2023-04-01T08:31:49;7.60;99.90
15937;DHT22;9163;48.818;8.976;2023-04-01T08:34:21;7.50;99.90
15937;DHT22;9163;48.818;8.976;2023-04-01T08:36:51;7.50;99.90
15937;DHT22;9163;48.818;8.976;2023-04-01T08:39:24;7.40;99.90
15937;DHT22;9163;48.818;8.976;2023-04-01T08:42:11;7.30;99.90
15937;DHT22;9163;48.818;8.976;2023-04-01T08:45:17;7.30;99.90
15937;DHT22;9163;48.818;8.976;2023-04-01T08:48:07;7.30;99.90
15937;DHT22;9163;48.818;8.976;2023-04-01T08:50:59;7.30;99.90
15937;DHT22;9163;48.818;8.976;2023-04-01T08:53:39;7.30;99.90
15937;DHT22;9163;48.818;8.976;2023-04-01T08:56:16;7.30;99.90
15937;DHT22;9163;48.818;8.976;2023-04-01T09:07:48;7.90;99.90
15937;DHT22;9163;48.818;8.976;2023-04-01T09:10:28;8.10;99.90
15937;DHT22;9163;48.818;8.976;2023-04-01T09:13:25;8.30;99.90
15937;DHT22;9163;48.818;8.976;2023-04-01T09:16:25;8.50;99.90
15937;DHT22;9163;48.818;8.976;2023-04-01T09:19:22;8.80;99.90
15937;DHT22;9163;48.818;8.976;2023-04-01T09:22:00;9.00;99.90
15937;DHT22;9163;48.818;8.976;2023-04-01T09:24:42;9.00;99.90
15937;DHT22;9163;48.818;8.976;2023-04-01T09:27:26;8.80;99.90
15937;DHT22;9163;48.818;8.976;2023-04-01T09:36:02;8.40;99.90
15937;DHT22;9163;48.818;8.976;2023-04-01T09:38:39;8.30;99.90
15937;DHT22;9163;48.818;8.976;2023-04-01T09:41:21;8.40;99.90
15937;DHT22;9163;48.818;8.976;2023-04-01T09:44:00;8.30;99.90
15937;DHT22;9163;48.818;8.976;2023-04-01T09:46:39;8.20;99.90
15937;DHT22;9163;48.818;8.976;2023-04-01T09:49:37;8.30;99.90
15937;DHT22;9163;48.818;8.976;2023-04-01T09:52:24;8.30;99.90
15937;DHT22;9163;48.818;8.976;2023-04-01T09:55:15;8.30;99.90
15937;DHT22;9163;48.818;8.976;2023-04-01T10:01:13;8.40;99.90
15937;DHT22;9163;48.818;8.976;2023-04-01T10:04:02;8.40;99.90
15937;DHT22;9163;48.818;8.976;2023-04-01T10:10:28;8.80;99.90
15937;DHT22;9163;48.818;8.976;2023-04-01T10:13:21;8.90;99.90
15937;DHT22;9163;48.818;8.976;2023-04-01T10:16:19;9.20;99.90
15937;DHT22;9163;48.818;8.976;2023-04-01T10:19:12;9.50;99.90
15937;DHT22;9163;48.818;8.976;2023-04-01T10:22:08;9.60;99.90
15937;DHT22;9163;48.818;8.976;2023-04-01T10:25:13;9.30;99.90
15937;DHT22;9163;48.818;8.976;2023-04-01T10:28:13;8.90;99.90
15937;DHT22;9163;48.818;8.976;2023-04-01T10:34:05;8.90;99.90
15937;DHT22;9163;48.818;8.976;2023-04-01T10:36:53;8.90;99.90
15937;DHT22;9163;48.818;8.976;2023-04-01T10:46:13;8.90;99.90
15937;DHT22;9163;48.818;8.976;2023-04-01T10:54:45;9.00;99.90
15937;DHT22;9163;48.818;8.976;2023-04-01T10:57:35;9.00;99.90
15937;DHT22;9163;48.818;8.976;2023-04-01T11:00:23;8.90;99.90
15937;DHT22;9163;48.818;8.976;2023-04-01T11:03:28;9.00;99.90
15937;DHT22;9163;48.818;8.976;2023-04-01T11:09:30;9.10;99.90
15937;DHT22;9163;48.818;8.976;2023-04-01T11:12:51;9.10;99.90
15937;DHT22;9163;48.818;8.976;2023-04-01T11:21:39;9.50;99.90
15937;DHT22;9163;48.818;8.976;2023-04-01T11:24:43;10.10;99.90
15937;DHT22;9163;48.818;8.976;2023-04-01T11:27:27;10.10;99.90
15937;DHT22;9163;48.818;8.976;2023-04-01T11:33:12;10.40;99.90
15937;DHT22;9163;48.818;8.976;2023-04-01T11:36:02;10.10;99.90
15937;DHT22;9163;48.818;8.976;2023-04-01T11:38:45;9.90;99.90
15937;DHT22;9163;48.818;8.976;2023-04-01T11:41:25;9.90;99.90
15937;DHT22;9163;48.818;8.976;2023-04-01T11:44:08;9.80;99.90
15937;DHT22;9163;48.818;8.976;2023-04-01T11:46:42;9.60;99.90
15937;DHT22;9163;48.818;8.976;2023-04-01T11:49:29;9.40;99.90
15937;DHT22;9163;48.818;8.976;2023-04-01T11:52:14;9.30;99.90
15937;DHT22;9163;48.818;8.976;2023-04-01T11:55:01;9.50;99.90
15937;DHT22;9163;48.818;8.976;2023-04-01T12:03:46;9.40;99.90
15937;DHT22;9163;48.818;8.976;2023-04-01T12:06:22;9.40;99.90
15937;DHT22;9163;48.818;8.976;2023-04-01T12:08:54;9.30;99.90
15937;DHT22;9163;48.818;8.976;2023-04-01T12:11:29;9.30;99.90
15937;DHT22;9163;48.818;8.976;2023-04-01T12:14:04;9.50;99.90
15937;DHT22;9163;48.818;8.976;2023-04-01T12:16:46;9.60;99.90
15937;DHT22;9163;48.818;8.976;2023-04-01T12:19:23;9.60;99.90
15937;DHT22;9163;48.818;8.976;2023-04-01T12:21:59;9.50;99.90
15937;DHT22;9163;48.818;8.976;2023-04-01T12:24:46;9.50;99.90
15937;DHT22;9163;48.818;8.976;2023-04-01T12:27:32;9.60;99.90
15937;DHT22;9163;48.818;8.976;2023-04-01T12:33:15;9.70;99.90
15937;DHT22;9163;48.818;8.976;2023-04-01T12:35:56;9.60;99.90
15937;DHT22;9163;48.818;8.976;2023-04-01T12:38:35;9.60;99.90
15937;DHT22;9163;48.818;8.976;2023-04-01T12:41:08;9.60;99.90
15937;DHT22;9163;48.818;8.976;2023-04-01T12:44:18;9.50;99.90
15937;DHT22;9163;48.818;8.976;2023-04-01T12:47:07;9.50;99.90
15937;DHT22;9163;48.818;8.976;2023-04-01T12:49:55;9.60;99.90
15937;DHT22;9163;48.818;8.976;2023-04-01T12:52:34;9.60;99.90
15937;DHT22;9163;48.818;8.976;2023-04-01T12:55:27;9.60;99.90
15937;DHT22;9163;48.818;8.976;2023-04-01T13:01:02;9.40;99.90
15937;DHT22;9163;48.818;8.976;2023-04-01T13:03:53;9.40;99.90
15937;DHT22;9163;48.818;8.976;2023-04-01T13:06:36;9.50;99.90
15937;DHT22;9163;48.818;8.976;2023-04-01T13:09:14;9.50;99.90
15937;DHT22;9163;48.818;8.976;2023-04-01T13:11:59;9.50;99.90
15937;DHT22;9163;48.818;8.976;2023-04-01T13:15:04;9.50;99.90
15937;DHT22;9163;48.818;8.976;2023-04-01T13:17:40;9.50;99.90
15937;DHT22;9163;48.818;8.976;2023-04-01T13:20:16;9.50;99.90
15937;DHT22;9163;48.818;8.976;2023-04-01T13:22:56;9.60;99.90
15937;DHT22;9163;48.818;8.976;2023-04-01T13:25:34;9.70;99.90
15937;DHT22;9163;48.818;8.976;2023-04-01T13:28:09;9.70;99.90
15937;DHT22;9163;48.818;8.976;2023-04-01T13:30:44;9.70;99.90
15937;DHT22;9163;48.818;8.976;2023-04-01T13:33:22;9.70;99.90
15937;DHT22;9163;48.818;8.976;2023-04-01T13:36:00;9.60;99.90
15937;DHT22;9163;48.818;8.976;2023-04-01T13:38:56;9.50;99.90
15937;DHT22;9163;48.818;8.976;2023-04-01T13:41:38;9.60;99.90
15937;DHT22;9163;48.818;8.976;2023-04-01T13:44:12;9.50;99.90
15937;DHT22;9163;48.818;8.976;2023-04-01T13:46:52;9.40;99.90
15937;DHT22;9163;48.818;8.976;2023-04-01T13:49:37;9.40;99.90
15937;DHT22;9163;48.818;8.976;2023-04-01T13:55:26;9.60;99.90
15937;DHT22;9163;48.818;8.976;2023-04-01T13:58:13;9.50;99.90
15937;DHT22;9163;48.818;8.976;2023-04-01T14:00:54;9.40;99.90
15937;DHT22;9163;48.818;8.976;2023-04-01T14:03:42;9.30;99.90
15937;DHT22;9163;48.818;8.976;2023-04-01T14:06:18;9.40;99.90
15937;DHT22;9163;48.818;8.976;2023-04-01T14:09:03;9.30;99.90
15937;DHT22;9163;48.818;8.976;2023-04-01T14:11:41;9.30;99.90
15937;DHT22;9163;48.818;8.976;2023-04-01T14:14:19;9.30;99.90
15937;DHT22;9163;48.818;8.976;2023-04-01T14:17:15;9.30;99.90
15937;DHT22;9163;48.818;8.976;2023-04-01T14:19:52;9.20;99.90
15937;DHT22;9163;48.818;8.976;2023-04-01T14:22:33;9.20;99.90
15937;DHT22;9163;48.818;8.976;2023-04-01T14:28:25;9.20;99.90
15937;DHT22;9163;48.818;8.976;2023-04-01T14:31:15;9.30;99.90
15937;DHT22;9163;48.818;8.976;2023-04-01T14:33:51;9.20;99.90
15937;DHT22;9163;48.818;8.976;2023-04-01T14:36:39;9.30;99.90
15937;DHT22;9163;48.818;8.976;2023-04-01T14:39:26;9.30;99.90
15937;DHT22;9163;48.818;8.976;2023-04-01T14:42:09;9.20;99.90
15937;DHT22;9163;48.818;8.976;2023-04-01T14:47:54;9.20;99.90
15937;DHT22;9163;48.818;8.976;2023-04-01T14:50:24;9.30;99.90
15937;DHT22;9163;48.818;8.976;2023-04-01T14:52:57;9.20;99.90
15937;DHT22;9163;48.818;8.976;2023-04-01T14:55:32;9.30;99.90
15937;DHT22;9163;48.818;8.976;2023-04-01T14:58:08;9.40;99.90
15937;DHT22;9163;48.818;8.976;2023-04-01T15:00:55;9.40;99.90
15937;DHT22;9163;48.818;8.976;2023-04-01T15:03:29;9.30;99.90
15937;DHT22;9163;48.818;8.976;2023-04-01T15:06:23;9.30;99.90
15937;DHT22;9163;48.818;8.976;2023-04-01T15:08:58;9.30;99.90
15937;DHT22;9163;48.818;8.976;2023-04-01T15:11:42;9.20;99.90
15937;DHT22;9163;48.818;8.976;2023-04-01T15:14:31;9.30;99.90
15937;DHT22;9163;48.818;8.976;2023-04-01T15:20:04;9.30;99.90
15937;DHT22;9163;48.818;8.976;2023-04-01T15:22:48;9.30;99.90
15937;DHT22;9163;48.818;8.976;2023-04-01T15:25:36;9.30;99.90
15937;DHT22;9163;48.818;8.976;2023-04-01T15:28:19;9.30;99.90
15937;DHT22;9163;48.818;8.976;2023-04-01T15:30:56;9.40;99.90
15937;DHT22;9163;48.818;8.976;2023-04-01T15:33:43;9.30;99.90
15937;DHT22;9163;48.818;8.976;2023-04-01T15:36:24;9.30;99.90
15937;DHT22;9163;48.818;8.976;2023-04-01T15:39:02;9.20;99.90
15937;DHT22;9163;48.818;8.976;2023-04-01T15:41:39;9.20;99.90
15937;DHT22;9163;48.818;8.976;2023-04-01T15:44:32;9.20;99.90
15937;DHT22;9163;48.818;8.976;2023-04-01T15:47:01;9.30;99.90
15937;DHT22;9163;48.818;8.976;2023-04-01T15:49:37;9.20;99.90
15937;DHT22;9163;48.818;8.976;2023-04-01T15:52:09;9.30;99.90
15937;DHT22;9163;48.818;8.976;2023-04-01T15:55:11;9.30;99.90
15937;DHT22;9163;48.818;8.976;2023-04-01T15:57:45;9.30;99.90
15937;DHT22;9163;48.818;8.976;2023-04-01T16:00:27;9.30;99.90
15937;DHT22;9163;48.818;8.976;2023-04-01T16:03:14;9.30;99.90
15937;DHT22;9163;48.818;8.976;2023-04-01T16:05:55;9.20;99.90
15937;DHT22;9163;48.818;8.976;2023-04-01T16:08:48;9.20;99.90
15937;DHT22;9163;48.818;8.976;2023-04-01T16:11:23;9.20;99.90
15937;DHT22;9163;48.818;8.976;2023-04-01T16:13:59;9.20;99.90
15937;DHT22;9163;48.818;8.976;2023-04-01T16:17:00;9.20;99.90
15937;DHT22;9163;48.818;8.976;2023-04-01T16:19:41;9.20;99.90
15937;DHT22;9163;48.818;8.976;2023-04-01T16:22:16;9.10;99.90
15937;DHT22;9163;48.818;8.976;2023-04-01T16:24:50;9.10;99.90
15937;DHT22;9163;48.818;8.976;2023-04-01T16:27:25;9.10;99.90
15937;DHT22;9163;48.818;8.976;2023-04-01T16:29:57;9.00;99.90
15937;DHT22;9163;48.818;8.976;2023-04-01T16:32:37;9.00;99.90
15937;DHT22;9163;48.818;8.976;2023-04-01T16:35:35;9.00;99.90
15937;DHT22;9163;48.818;8.976;2023-04-01T16:38:11;9.10;99.90
15937;DHT22;9163;48.818;8.976;2023-04-01T16:40:46;9.00;99.90
15937;DHT22;9163;48.818;8.976;2023-04-01T16:43:21;9.00;99.90
15937;DHT22;9163;48.818;8.976;2023-04-01T16:46:10;9.00;99.90
15937;DHT22;9163;48.818;8.976;2023-04-01T16:48:57;9.00;99.90
15937;DHT22;9163;48.818;8.976;2023-04-01T16:51:30;9.00;99.90
15937;DHT22;9163;48.818;8.976;2023-04-01T16:54:05;8.90;99.90
15937;DHT22;9163;48.818;8.976;2023-04-01T16:56:39;8.90;99.90
15937;DHT22;9163;48.818;8.976;2023-04-01T16:59:15;8.90;99.90
15937;DHT22;9163;48.818;8.976;2023-04-01T17:01:50;9.00;99.90
15937;DHT22;9163;48.818;8.976;2023-04-01T17:04:27;8.80;99.90
15937;DHT22;9163;48.818;8.976;2023-04-01T17:07:01;8.80;99.90
15937;DHT22;9163;48.818;8.976;2023-04-01T17:09:44;8.80;99.90
15937;DHT22;9163;48.818;8.976;2023-04-01T17:12:19;8.70;99.90
15937;DHT22;9163;48.818;8.976;2023-04-01T17:14:54;8.80;99.90
15937;DHT22;9163;48.818;8.976;2023-04-01T17:17:42;8.80;99.90
15937;DHT22;9163;48.818;8.976;2023-04-01T17:20:38;8.80;99.90
15937;DHT22;9163;48.818;8.976;2023-04-01T17:23:14;8.80;99.90
15937;DHT22;9163;48.818;8.976;2023-04-01T17:25:52;8.80;99.90
15937;DHT22;9163;48.818;8.976;2023-04-01T17:28:34;8.80;99.90
15937;DHT22;9163;48.818;8.976;2023-04-01T17:31:10;8.80;99.90
15937;DHT22;9163;48.818;8.976;2023-04-01T17:33:53;8.80;99.90
15937;DHT22;9163;48.818;8.976;2023-04-01T17:36:36;8.80;99.90
15937;DHT22;9163;48.818;8.976;2023-04-01T17:39:32;8.80;99.90
15937;DHT22;9163;48.818;8.976;2023-04-01T17:42:06;8.80;99.90
15937;DHT22;9163;48.818;8.976;2023-04-01T17:44:46;8.70;99.90
15937;DHT22;9163;48.818;8.976;2023-04-01T17:47:31;8.60;99.90
15937;DHT22;9163;48.818;8.976;2023-04-01T17:50:20;8.60;99.90
15937;DHT22;9163;48.818;8.976;2023-04-01T17:53:06;8.50;99.90
15937;DHT22;9163;48.818;8.976;2023-04-01T17:55:53;8.50;99.90
15937;DHT22;9163;48.818;8.976;2023-04-01T17:58:29;8.30;99.90
15937;DHT22;9163;48.818;8.976;2023-04-01T18:01:09;8.20;99.90
15937;DHT22;9163;48.818;8.976;2023-04-01T18:03:55;8.10;99.90
15937;DHT22;9163;48.818;8.976;2023-04-01T18:06:32;8.10;99.90
15937;DHT22;9163;48.818;8.976;2023-04-01T18:09:09;8.00;99.90
15937;DHT22;9163;48.818;8.976;2023-04-01T18:11:50;8.00;99.90
15937;DHT22;9163;48.818;8.976;2023-04-01T18:14:40;8.00;99.90
15937;DHT22;9163;48.818;8.976;2023-04-01T18:17:21;7.90;99.90
15937;DHT22;9163;48.818;8.976;2023-04-01T18:20:02;7.90;99.90